Meteorología y climatología de Navarra
Datos de la estación - Meteo Navarra

Estación de Tudela (Montes del Cierzo) GN

Altitud 314 m.


Datos desde el 15/02/2020 hasta el 16/02/2020 en horario solar
Los datos son PROVISIONALES

Anterior Página 1 de 1 Siguiente Descargar: Formato para Excel 2000 o superior   Formato csv   Formato para OpenOffice Calc
Fecha Temperatura Humedad relativa Radiación global Insolación Precipitación Vel. viento 10 m Vel. viento 10 m Dir. viento 10 m
ºC % W/m² s l/m² m/s km/h º
15/02/2020 0:00 5.9 90 0.0 0 0.0 2.1 7.7 241
15/02/2020 0:10 5.7 90 0.0 0 0.0 2.3 8.2 231
15/02/2020 0:20 5.8 91 0.0 0 0.0 2.3 8.4 218
15/02/2020 0:30 5.9 91 0.0 0 0.0 1.9 6.8 221
15/02/2020 0:40 5.7 90 0.0 0 0.0 2.6 9.2 223
15/02/2020 0:50 5.1 91 0.0 0 0.0 3.1 11.1 217
15/02/2020 1:00 5.2 92 0.0 0 0.0 3.4 12.4 213
15/02/2020 1:10 5.5 92 0.0 0 0.0 3.1 11.1 217
15/02/2020 1:20 5.3 92 0.0 0 0.0 2.7 9.8 217
15/02/2020 1:30 5.3 92 0.0 0 0.0 2.5 9.0 219
15/02/2020 1:40 5.3 92 0.0 0 0.0 1.8 6.4 240
15/02/2020 1:50 5.0 91 0.0 0 0.0 0.9 3.1 259
15/02/2020 2:00 4.2 92 0.0 0 0.0 0.2 0.8 158
15/02/2020 2:10 4.5 94 0.0 0 0.0 0.3 1.0 150
15/02/2020 2:20 4.7 94 0.0 0 0.0 1.1 3.9 208
15/02/2020 2:30 4.8 94 0.0 0 0.0 1.1 4.0 211
15/02/2020 2:40 5.1 94 0.0 0 0.0 0.8 3.0 221
15/02/2020 2:50 4.7 93 0.0 0 0.0 0.9 3.3 223
15/02/2020 3:00 4.5 94 0.0 0 0.0 1.3 4.7 214
15/02/2020 3:10 4.2 93 0.0 0 0.0 1.7 6.1 223
15/02/2020 3:20 3.9 94 0.0 0 0.0 1.7 6.1 216
15/02/2020 3:30 3.9 94 0.0 0 0.0 1.3 4.6 221
15/02/2020 3:40 3.2 94 0.0 0 0.0 1.3 4.5 115
15/02/2020 3:50 2.7 95 0.0 0 0.0 1.2 4.1 95
15/02/2020 4:00 3.5 96 0.0 0 0.0 1.2 4.4 120
15/02/2020 4:10 3.5 96 0.0 0 0.0 1.2 4.2 118
15/02/2020 4:20 3.4 96 0.0 0 0.0 1.4 5.1 120
15/02/2020 4:30 3.1 96 0.0 0 0.0 0.5 1.8 103
15/02/2020 4:40 3.1 96 0.0 0 0.0 0.2 0.7 200
15/02/2020 4:50 2.6 96 0.0 0 0.0 0.8 3.0 215
15/02/2020 5:00 2.4 97 0.0 0 0.0 1.2 4.3 198
15/02/2020 5:10 2.6 97 0.0 0 0.0 0.8 3.0 219
15/02/2020 5:20 2.4 97 0.0 0 0.0 2.0 7.1 256
15/02/2020 5:30 2.2 97 0.0 0 0.0 1.8 6.3 246
15/02/2020 5:40 2.0 97 0.0 0 0.0 1.4 5.1 210
15/02/2020 5:50 2.2 98 0.0 0 0.0 1.5 5.4 196
15/02/2020 6:00 2.1 97 0.0 0 0.0 1.3 4.6 222
15/02/2020 6:10 2.2 98 0.0 0 0.0 1.3 4.8 247
15/02/2020 6:20 2.2 98 0.0 0 0.0 1.3 4.7 237
15/02/2020 6:30 1.9 98 0.0 0 0.0 1.6 5.6 214
15/02/2020 6:40 1.5 97 0.0 0 0.0 1.8 6.5 233
15/02/2020 6:50 1.5 98 0.0 0 0.0 1.9 6.8 259
15/02/2020 7:00 1.3 98 0.0 0 0.0 2.3 8.3 255
15/02/2020 7:10 1.1 98 0.0 0 0.0 1.5 5.3 234
15/02/2020 7:20 1.6 98 7.6 0 0.0 1.4 5.1 209
15/02/2020 7:30 1.8 98 31.6 314 0.0 1.2 4.2 226
15/02/2020 7:40 2.3 98 51.3 600 0.0 1.2 4.4 231
15/02/2020 7:50 2.6 98 72.2 600 0.0 0.8 2.7 254
15/02/2020 8:00 3.2 97 98.0 600 0.0 0.8 3.0 249
15/02/2020 8:10 4.0 97 125.4 600 0.0 1.0 3.6 240
15/02/2020 8:20 4.6 96 155.8 600 0.0 1.1 4.1 242
15/02/2020 8:30 5.2 95 187.8 600 0.0 0.8 3.0 267
15/02/2020 8:40 6.1 94 220.8 600 0.0 0.4 1.5 312
15/02/2020 8:50 6.0 91 251.3 600 0.0 1.7 5.9 1
15/02/2020 9:00 5.6 91 259.2 600 0.0 1.2 4.2 348
15/02/2020 9:10 6.1 91 309.8 600 0.0 0.8 2.9 307
15/02/2020 9:20 6.7 90 320.6 600 0.0 0.6 2.0 284
15/02/2020 9:30 7.0 89 343.9 600 0.0 1.9 6.7 4
15/02/2020 9:40 7.3 89 384.2 600 0.0 1.1 4.0 353
15/02/2020 9:50 7.6 87 413.1 600 0.0 1.0 3.5 5
15/02/2020 10:00 7.9 87 436.2 600 0.0 1.6 5.9 347
15/02/2020 10:10 8.4 84 456.9 600 0.0 2.7 9.8 345
15/02/2020 10:20 8.7 83 479.3 600 0.0 1.8 6.4 341
15/02/2020 10:30 8.6 81 501.3 600 0.0 1.4 5.1 3
15/02/2020 10:40 8.9 81 519.4 600 0.0 1.2 4.2 354
15/02/2020 10:50 9.6 80 536.2 600 0.0 1.1 4.1 15
15/02/2020 11:00 10.2 76 553.0 600 0.0 0.9 3.2 339
15/02/2020 11:10 10.6 75 568.1 600 0.0 1.2 4.5 354
15/02/2020 11:20 11.3 73 579.5 600 0.0 0.8 3.0 354
15/02/2020 11:30 11.6 70 591.1 600 0.0 0.7 2.5 38
15/02/2020 11:40 12.3 69 597.7 600 0.0 0.5 1.7 92
15/02/2020 11:50 12.5 68 604.9 600 0.0 1.0 3.7 114
15/02/2020 12:00 12.4 68 610.8 600 0.0 0.7 2.4 130
15/02/2020 12:10 13.0 67 614.4 600 0.0 1.1 3.9 129
15/02/2020 12:20 13.4 65 617.6 600 0.0 1.3 4.7 107
15/02/2020 12:30 13.2 66 617.7 600 0.0 1.4 5.2 99
15/02/2020 12:40 13.8 65 613.7 600 0.0 1.2 4.4 111
15/02/2020 12:50 13.7 65 612.8 600 0.0 2.2 8.0 129
15/02/2020 13:00 14.0 65 609.9 600 0.0 2.5 9.0 122
15/02/2020 13:10 14.1 65 617.6 600 0.0 3.3 11.7 140
15/02/2020 13:20 14.3 65 613.4 600 0.0 3.5 12.7 137
15/02/2020 13:30 14.9 64 591.7 600 0.0 4.0 14.5 142
15/02/2020 13:40 14.6 64 519.7 600 0.0 4.4 15.7 142
15/02/2020 13:50 15.2 62 640.7 600 0.0 3.8 13.5 143
15/02/2020 14:00 15.2 63 454.1 600 0.0 4.1 14.9 146
15/02/2020 14:10 14.9 63 404.5 600 0.0 4.8 17.2 144
15/02/2020 14:20 15.1 63 352.6 566 0.0 3.9 14.2 148
15/02/2020 14:30 14.8 63 227.3 26 0.0 3.8 13.7 147
15/02/2020 14:40 14.6 64 250.4 330 0.0 3.2 11.3 143
15/02/2020 14:50 14.8 64 341.3 600 0.0 2.5 9.1 147
15/02/2020 15:00 15.3 62 429.5 600 0.0 2.6 9.5 141
15/02/2020 15:10 15.5 61 402.4 600 0.0 3.0 10.9 146
15/02/2020 15:20 15.6 61 425.3 600 0.0 3.0 10.6 138
15/02/2020 15:30 15.7 62 315.1 600 0.0 2.9 10.6 126
15/02/2020 15:40 15.3 64 195.6 448 0.0 3.2 11.6 138
15/02/2020 15:50 15.1 65 144.3 0 0.0 2.9 10.4 151
15/02/2020 16:00 15.0 66 112.6 0 0.0 2.9 10.5 148
15/02/2020 16:10 14.8 67 97.4 0 0.0 2.5 8.9 145
15/02/2020 16:20 14.8 68 85.2 0 0.0 1.6 5.6 154
15/02/2020 16:30 14.8 67 67.3 0 0.0 0.9 3.3 204
15/02/2020 16:40 14.7 68 62.7 0 0.0 0.9 3.3 204
15/02/2020 16:50 14.4 68 48.7 0 0.0 0.9 3.3 230
15/02/2020 17:00 14.3 68 28.9 0 0.0 1.4 4.9 256
15/02/2020 17:10 14.0 70 14.4 0 0.0 1.3 4.8 254
15/02/2020 17:20 13.6 71 0.0 0 0.0 1.4 5.1 250
15/02/2020 17:30 12.6 75 0.0 0 0.0 1.3 4.8 228
15/02/2020 17:40 12.1 78 0.0 0 0.0 1.5 5.4 222
15/02/2020 17:50 11.6 79 0.0 0 0.0 1.7 6.3 231
15/02/2020 18:00 11.3 81 0.0 0 0.0 1.4 5.1 251
15/02/2020 18:10 11.0 81 0.0 0 0.0 1.4 4.9 215
15/02/2020 18:20 10.9 82 0.0 0 0.0 1.4 5.1 215
15/02/2020 18:30 10.8 82 0.0 0 0.0 1.3 4.8 216
15/02/2020 18:40 10.4 82 0.0 0 0.0 1.6 5.8 212
15/02/2020 18:50 10.2 82 0.0 0 0.0 1.5 5.3 201
15/02/2020 19:00 9.8 83 0.0 0 0.0 1.4 4.9 187
15/02/2020 19:10 9.5 84 0.0 0 0.0 1.9 6.8 204
15/02/2020 19:20 9.2 84 0.0 0 0.0 1.7 5.9 213
15/02/2020 19:30 9.3 84 0.0 0 0.0 1.3 4.6 239
15/02/2020 19:40 9.6 85 0.0 0 0.0 0.5 1.8 219
15/02/2020 19:50 9.5 83 0.0 0 0.0 0.2 0.6 192
15/02/2020 20:00 9.2 84 0.0 0 0.0 1.1 4.1 203
15/02/2020 20:10 8.5 84 0.0 0 0.0 1.7 6.0 215
15/02/2020 20:20 8.7 85 0.0 0 0.0 1.0 3.6 185
15/02/2020 20:30 8.1 86 0.0 0 0.0 0.4 1.6 219
15/02/2020 20:40 8.2 87 0.0 0 0.0 1.2 4.2 206
15/02/2020 20:50 8.1 87 0.0 0 0.0 2.3 8.3 205
15/02/2020 21:00 8.0 89 0.0 0 0.0 2.1 7.5 224
15/02/2020 21:10 8.3 89 0.0 0 0.0 2.0 7.2 186
15/02/2020 21:20 8.5 87 0.0 0 0.0 2.7 9.6 183
15/02/2020 21:30 8.4 86 0.0 0 0.0 1.1 4.1 218
15/02/2020 21:40 9.0 86 0.0 0 0.0 1.2 4.2 321
15/02/2020 21:50 9.2 85 0.0 0 0.0 0.5 1.7 358
15/02/2020 22:00 9.0 84 0.0 0 0.0 1.7 6.3 343
15/02/2020 22:10 8.8 85 0.0 0 0.0 1.5 5.2 317
15/02/2020 22:20 9.3 84 0.0 0 0.0 2.0 7.1 62
15/02/2020 22:30 9.3 82 0.0 0 0.0 1.3 4.8 81
15/02/2020 22:40 8.5 84 0.0 0 0.0 1.6 5.7 90
15/02/2020 22:50 7.9 86 0.0 0 0.0 1.7 6.3 60
15/02/2020 23:00 7.9 88 0.0 0 0.0 2.2 7.8 50
15/02/2020 23:10 7.8 88 0.0 0 0.0 1.6 5.7 54
15/02/2020 23:20 7.4 89 0.0 0 0.0 1.3 4.6 105
15/02/2020 23:30 6.9 90 0.0 0 0.0 1.6 5.8 141
15/02/2020 23:40 7.1 92 0.0 0 0.0 2.2 7.9 150
15/02/2020 23:50 7.4 91 0.0 0 0.0 2.9 10.6 131
Anterior Página 1 de 1 Siguiente

NOTA: Tipo de datos según el color:
   - Valores diarios o 10 minutos correctos
   - Valores diarios calculados a partir de un número de datos 10 minutos menor que 144 y mayor que 120, o de un número de datos semihorarios menor que 48 y mayor que 40 (caso de las estaciones de INTIA y del Ministerio)
   - Valores diez minutos estimados


Contacto        Enlaces        Aviso legal